Terminal Aerodrome Forecast
Issued by NWS

Home | Current Version | Previous Version | Text Only | Print | Product List | Glossary On
Versions: 1 2 3 4 5 6 7 8 9 10 11 12 13 14 15 16 17 18 19 20 21
000
FTUS41 KBGM 200800 AAA
TAFRME
TAF AMD
KRME 200844Z 2009/2106 12003KT P6SM SCT040 BKN120
     FM201600 20007KT P6SM OVC080
     FM210000 13005KT P6SM OVC050=

USA.gov is the U.S. government's official web portal to all federal, state and local government web resources and services.